createdAt,value
2023-01-05T00:01:54.195Z,19.37
2023-01-05T00:04:22.360Z,15.97
2023-01-05T00:06:50.002Z,15.07
2023-01-05T00:09:19.351Z,15.03
2023-01-05T00:12:05.821Z,15.40
2023-01-05T00:14:53.451Z,15.30
2023-01-05T00:17:42.158Z,14.33
2023-01-05T00:20:47.162Z,15.60
2023-01-05T00:23:14.747Z,16.57
2023-01-05T00:25:42.422Z,14.20
2023-01-05T00:28:10.041Z,14.43
2023-01-05T00:30:45.949Z,14.37
2023-01-05T00:33:17.486Z,14.07
2023-01-05T00:35:45.330Z,14.87
2023-01-05T00:38:13.085Z,15.60
2023-01-05T00:40:40.721Z,15.50
2023-01-05T00:43:08.204Z,16.03
2023-01-05T00:45:35.729Z,15.47
2023-01-05T00:48:03.294Z,15.60
2023-01-05T00:50:30.859Z,16.47
2023-01-05T00:52:58.344Z,17.50
2023-01-05T00:55:25.932Z,17.10
2023-01-05T00:57:53.579Z,17.37
2023-01-05T01:00:21.226Z,17.17
2023-01-05T01:02:55.053Z,16.73
2023-01-05T01:05:23.337Z,15.57
2023-01-05T01:07:50.993Z,15.83
2023-01-05T01:10:18.731Z,17.83
2023-01-05T01:12:46.281Z,19.53
2023-01-05T01:15:13.978Z,18.77
2023-01-05T01:17:42.904Z,16.73
2023-01-05T01:20:10.804Z,18.07
2023-01-05T01:22:38.441Z,17.03
2023-01-05T01:25:07.631Z,18.20
2023-01-05T01:27:35.424Z,24.87
2023-01-05T01:30:03.005Z,22.67
2023-01-05T01:32:30.548Z,21.70
2023-01-05T01:34:58.039Z,21.53
2023-01-05T01:37:25.668Z,21.93
2023-01-05T01:39:56.074Z,20.90
2023-01-05T01:42:24.312Z,21.37
2023-01-05T01:45:18.247Z,21.53
2023-01-05T01:47:59.769Z,25.77
2023-01-05T01:50:49.520Z,27.07
2023-01-05T01:53:52.151Z,26.90
2023-01-05T01:56:22.468Z,26.73
2023-01-05T01:58:50.827Z,25.73
2023-01-05T02:01:19.383Z,26.73
2023-01-05T02:03:47.639Z,24.47
2023-01-05T02:06:15.640Z,25.37
2023-01-05T02:08:43.846Z,25.80
2023-01-05T02:11:18.276Z,24.53
2023-01-05T02:14:18.512Z,26.17
2023-01-05T02:17:30.706Z,24.03
2023-01-05T02:20:28.527Z,23.00
2023-01-05T02:23:15.807Z,26.33
2023-01-05T02:26:02.118Z,26.03
2023-01-05T02:29:12.434Z,25.90
2023-01-05T02:32:04.278Z,24.30
2023-01-05T02:34:42.332Z,23.33
2023-01-05T02:37:21.841Z,21.43
2023-01-05T02:39:59.262Z,21.63
2023-01-05T02:42:30.912Z,21.37
2023-01-05T02:45:01.135Z,19.50
2023-01-05T02:47:28.661Z,20.97
2023-01-05T02:50:09.828Z,20.33
2023-01-05T02:52:46.923Z,20.13
2023-01-05T02:55:23.587Z,20.10
2023-01-05T02:58:02.529Z,20.37
2023-01-05T03:00:47.167Z,20.60
2023-01-05T03:03:30.071Z,22.23
2023-01-05T03:06:25.668Z,22.77
2023-01-05T03:09:00.421Z,24.40
2023-01-05T03:12:02.001Z,26.60
2023-01-05T03:14:43.498Z,27.03
2023-01-05T03:17:17.921Z,27.23
2023-01-05T03:19:50.698Z,27.47
2023-01-05T03:22:49.931Z,26.50
2023-01-05T03:25:40.080Z,26.17
2023-01-05T03:28:35.865Z,25.10
2023-01-05T03:31:54.569Z,25.53
2023-01-05T03:35:02.207Z,24.83
2023-01-05T03:37:44.573Z,24.33
2023-01-05T03:40:22.686Z,21.73
2023-01-05T03:42:53.224Z,25.67
2023-01-05T03:45:27.123Z,27.23
2023-01-05T03:47:56.084Z,22.27
2023-01-05T03:50:26.895Z,24.07
2023-01-05T03:52:55.020Z,26.10
2023-01-05T03:55:23.530Z,25.33
2023-01-05T03:57:53.772Z,25.17
2023-01-05T04:00:22.816Z,23.97
2023-01-05T04:02:59.389Z,23.00
2023-01-05T04:05:27.131Z,23.50
2023-01-05T04:07:55.002Z,23.47
2023-01-05T04:10:22.602Z,23.90
2023-01-05T04:12:50.099Z,23.80
2023-01-05T04:15:19.147Z,24.27
2023-01-05T04:17:47.042Z,22.90
2023-01-05T04:20:14.680Z,23.47
2023-01-05T04:22:42.887Z,23.63
2023-01-05T04:25:10.816Z,24.67
2023-01-05T04:27:39.967Z,30.90
2023-01-05T04:30:08.702Z,34.03
2023-01-05T04:32:36.359Z,34.57
2023-01-05T04:35:11.049Z,30.87
2023-01-05T04:37:40.637Z,25.97
2023-01-05T04:40:09.862Z,23.83
2023-01-05T04:42:46.361Z,22.17
2023-01-05T04:45:14.339Z,24.27
2023-01-05T04:47:41.812Z,25.00
2023-01-05T04:50:12.063Z,26.03
2023-01-05T04:52:40.510Z,28.27
2023-01-05T04:55:09.026Z,26.03
2023-01-05T04:57:37.191Z,22.83
2023-01-05T05:00:06.056Z,24.13
2023-01-05T05:02:34.993Z,29.57
2023-01-05T05:05:02.644Z,29.17
2023-01-05T05:07:30.380Z,27.50
2023-01-05T05:09:59.409Z,34.03
2023-01-05T05:12:27.236Z,31.60
2023-01-05T05:14:54.836Z,29.50
2023-01-05T05:17:22.332Z,27.43
2023-01-05T05:19:50.526Z,28.03
2023-01-05T05:22:21.083Z,27.93
2023-01-05T05:24:48.686Z,27.53
2023-01-05T05:27:16.142Z,27.83
2023-01-05T05:29:43.703Z,26.87
2023-01-05T05:32:11.446Z,22.70
2023-01-05T05:34:38.940Z,23.17
2023-01-05T05:37:06.837Z,23.10
2023-01-05T05:39:34.316Z,22.57
2023-01-05T05:42:01.834Z,23.97
2023-01-05T05:44:29.290Z,27.87
2023-01-05T05:46:58.084Z,29.17
2023-01-05T05:49:25.571Z,28.23
2023-01-05T05:51:53.116Z,26.47
2023-01-05T05:54:20.812Z,25.17
2023-01-05T05:56:48.361Z,24.50
2023-01-05T05:59:15.980Z,26.27
2023-01-05T06:01:43.731Z,25.80
2023-01-05T06:04:12.190Z,27.33
2023-01-05T06:06:39.979Z,52.27
2023-01-05T06:09:07.545Z,171.50
2023-01-05T06:11:35.403Z,93.50
2023-01-05T06:14:03.229Z,77.23
2023-01-05T06:16:30.843Z,61.80
2023-01-05T06:18:58.667Z,62.40
2023-01-05T06:21:26.150Z,61.77
2023-01-05T06:23:53.609Z,57.13
2023-01-05T06:26:21.155Z,69.10
2023-01-05T06:28:48.633Z,100.33
2023-01-05T06:31:16.149Z,92.93
2023-01-05T06:33:43.684Z,61.73
2023-01-05T06:36:11.355Z,57.17
2023-01-05T06:38:38.849Z,58.27
2023-01-05T06:41:06.539Z,80.07
2023-01-05T06:43:34.072Z,53.03
2023-01-05T06:46:01.726Z,41.57
2023-01-05T06:48:29.347Z,46.00
2023-01-05T06:50:56.876Z,64.00
2023-01-05T06:53:24.317Z,51.20
2023-01-05T06:55:51.759Z,53.60
2023-01-05T06:58:19.282Z,55.47
2023-01-05T07:00:46.832Z,52.03
2023-01-05T07:03:14.663Z,41.17
2023-01-05T07:05:42.860Z,33.77
2023-01-05T07:08:10.326Z,30.13
2023-01-05T07:10:37.878Z,30.40
2023-01-05T07:13:05.382Z,28.23
2023-01-05T07:15:32.937Z,31.83
2023-01-05T07:18:00.413Z,61.60
2023-01-05T07:20:28.091Z,52.93
2023-01-05T07:22:55.727Z,46.90
2023-01-05T07:25:23.446Z,44.30
2023-01-05T07:27:53.590Z,37.90
2023-01-05T07:30:21.003Z,39.60
2023-01-05T07:32:48.473Z,39.00
2023-01-05T07:35:16.198Z,39.10
2023-01-05T07:37:44.507Z,37.90
2023-01-05T07:40:12.669Z,31.27
2023-01-05T07:42:40.298Z,28.90
2023-01-05T07:45:10.469Z,31.20
2023-01-05T07:47:40.358Z,37.60
2023-01-05T07:50:08.616Z,37.60
2023-01-05T07:52:36.124Z,37.77
2023-01-05T07:55:04.624Z,39.23
2023-01-05T07:57:32.157Z,41.60
2023-01-05T08:00:00.145Z,38.63
2023-01-05T08:02:32.368Z,36.87
2023-01-05T08:05:03.519Z,36.17
2023-01-05T08:07:30.995Z,36.17
2023-01-05T08:10:18.083Z,33.70
2023-01-05T08:13:04.384Z,30.93
2023-01-05T08:15:31.948Z,30.50
2023-01-05T08:17:59.444Z,30.67
2023-01-05T08:20:26.978Z,29.33
2023-01-05T08:22:55.121Z,29.77
2023-01-05T08:25:22.849Z,25.90
2023-01-05T08:27:51.504Z,26.77
2023-01-05T08:30:19.033Z,24.67
2023-01-05T08:32:47.235Z,21.60
2023-01-05T08:35:14.761Z,21.40
2023-01-05T08:37:46.119Z,22.93
2023-01-05T08:40:13.773Z,27.40
2023-01-05T08:42:41.269Z,28.93
2023-01-05T08:45:10.270Z,27.73
2023-01-05T08:47:37.753Z,27.33
2023-01-05T08:50:06.324Z,25.50
2023-01-05T08:52:33.875Z,25.40
2023-01-05T08:55:02.634Z,24.30
2023-01-05T08:57:31.214Z,26.60
2023-01-05T08:59:58.660Z,26.93
2023-01-05T09:02:26.822Z,25.97
2023-01-05T09:04:54.587Z,25.83
2023-01-05T09:07:22.495Z,24.23
2023-01-05T09:09:49.974Z,25.37
2023-01-05T09:12:17.442Z,25.10
2023-01-05T09:14:45.004Z,24.03
2023-01-05T09:17:12.545Z,24.30
2023-01-05T09:19:40.123Z,24.47
2023-01-05T09:22:07.585Z,24.63
2023-01-05T09:24:35.096Z,22.67
2023-01-05T09:27:03.904Z,25.07
2023-01-05T09:29:31.542Z,30.03
2023-01-05T09:31:59.668Z,25.17
2023-01-05T09:34:27.334Z,25.43
2023-01-05T09:36:54.806Z,24.73
2023-01-05T09:39:22.247Z,22.33
2023-01-05T09:41:58.928Z,18.70
2023-01-05T09:44:29.678Z,19.93
2023-01-05T09:47:31.067Z,19.40
2023-01-05T09:50:00.657Z,21.03
2023-01-05T09:52:31.523Z,21.00
2023-01-05T09:55:18.995Z,20.77
2023-01-05T09:58:07.590Z,21.20
2023-01-05T10:00:45.117Z,20.83
2023-01-05T10:03:53.202Z,21.83
2023-01-05T10:06:16.919Z,18.90
2023-01-05T10:08:49.910Z,18.47
2023-01-05T10:11:58.454Z,19.57
2023-01-05T10:14:40.673Z,22.13
2023-01-05T10:20:38.460Z,19.03
2023-01-05T10:23:26.959Z,19.00
2023-01-05T10:26:50.986Z,19.57
2023-01-05T10:29:47.468Z,19.07
2023-01-05T10:32:32.329Z,20.00
2023-01-05T10:35:59.606Z,18.40
2023-01-05T10:38:58.923Z,18.30
2023-01-05T10:41:40.151Z,19.03
2023-01-05T10:44:41.669Z,20.77
2023-01-05T10:47:11.228Z,18.43
2023-01-05T10:49:42.539Z,19.60
2023-01-05T10:52:16.355Z,18.73
2023-01-05T10:54:56.453Z,17.27
2023-01-05T10:57:34.612Z,19.27
2023-01-05T11:00:08.288Z,17.20
2023-01-05T11:02:40.318Z,16.27
2023-01-05T11:05:10.744Z,16.27
2023-01-05T11:07:51.523Z,15.93
2023-01-05T11:10:25.029Z,15.80
2023-01-05T11:13:33.492Z,14.57
2023-01-05T11:16:13.348Z,15.37
2023-01-05T11:19:00.496Z,15.40
2023-01-05T11:21:43.535Z,21.57
2023-01-05T11:24:29.640Z,15.77
2023-01-05T11:27:03.757Z,15.17
2023-01-05T11:29:32.080Z,15.00
2023-01-05T11:32:06.405Z,19.50
2023-01-05T11:34:42.182Z,11.87
2023-01-05T11:37:12.485Z,11.53
2023-01-05T11:39:49.672Z,12.13
2023-01-05T11:42:27.916Z,10.77
2023-01-05T11:45:02.484Z,11.00
2023-01-05T11:47:57.998Z,10.37
2023-01-05T11:50:32.125Z,9.63
2023-01-05T11:53:02.447Z,9.87
2023-01-05T11:55:38.406Z,10.20
2023-01-05T11:58:20.801Z,12.63
2023-01-05T12:01:11.383Z,11.77
2023-01-05T12:04:04.758Z,15.07
2023-01-05T12:06:39.095Z,9.57
2023-01-05T12:09:37.815Z,9.43
2023-01-05T12:12:47.634Z,15.33
2023-01-05T12:15:51.588Z,11.37
2023-01-05T12:19:14.981Z,8.80
2023-01-05T12:22:28.339Z,8.30
2023-01-05T12:25:15.032Z,9.13
2023-01-05T12:28:35.579Z,8.60
2023-01-05T12:34:57.911Z,8.23
2023-01-05T12:37:45.928Z,7.77
2023-01-05T12:41:09.839Z,8.73
2023-01-05T12:44:50.878Z,9.40
2023-01-05T12:47:57.736Z,9.10
2023-01-05T12:50:48.506Z,8.40
2023-01-05T12:53:32.207Z,8.47
2023-01-05T12:56:19.684Z,9.03
2023-01-05T12:59:04.756Z,9.23
2023-01-05T13:01:39.422Z,11.13
2023-01-05T13:04:34.329Z,13.27
2023-01-05T13:07:19.670Z,9.63
2023-01-05T13:10:02.515Z,10.73
2023-01-05T13:12:32.892Z,10.60
2023-01-05T13:15:21.847Z,11.13
2023-01-05T13:17:52.069Z,9.77
2023-01-05T13:20:41.285Z,10.70
2023-01-05T13:23:33.650Z,13.37
2023-01-05T13:26:14.904Z,10.03
2023-01-05T13:28:42.940Z,10.37
2023-01-05T13:31:38.172Z,8.97
2023-01-05T13:34:38.018Z,7.70
2023-01-05T13:37:30.287Z,8.20
2023-01-05T13:40:12.838Z,8.57
2023-01-05T13:43:04.984Z,8.20
2023-01-05T13:46:08.749Z,8.70
2023-01-05T13:49:15.380Z,9.97
2023-01-05T13:52:03.200Z,10.77
2023-01-05T13:55:00.272Z,10.33
2023-01-05T13:57:38.546Z,9.90
2023-01-05T14:00:27.990Z,9.10
2023-01-05T14:03:29.776Z,9.30
2023-01-05T14:06:01.415Z,8.77
2023-01-05T14:08:46.648Z,10.20
2023-01-05T14:11:22.817Z,10.73
2023-01-05T14:14:08.635Z,10.83
2023-01-05T14:16:37.525Z,10.67
2023-01-05T14:19:52.823Z,11.40
2023-01-05T14:22:20.224Z,11.77
2023-01-05T14:24:49.072Z,11.33
2023-01-05T14:27:24.604Z,12.57
2023-01-05T14:29:55.506Z,12.87
2023-01-05T14:32:41.368Z,16.93
2023-01-05T14:35:37.171Z,29.73
2023-01-05T14:38:18.592Z,25.90
2023-01-05T14:40:52.890Z,22.53
2023-01-05T14:43:40.773Z,19.03
2023-01-05T14:46:15.453Z,39.10
2023-01-05T14:49:07.911Z,32.53
2023-01-05T14:51:38.763Z,24.03
2023-01-05T14:54:50.346Z,25.33
2023-01-05T14:57:27.181Z,22.93
2023-01-05T15:00:27.834Z,24.80
2023-01-05T15:03:40.531Z,23.17
2023-01-05T15:06:19.849Z,22.10
2023-01-05T15:09:25.526Z,23.20
2023-01-05T15:12:15.974Z,21.50
2023-01-05T15:15:23.828Z,25.87
2023-01-05T15:18:23.433Z,29.73
2023-01-05T15:21:18.429Z,35.03
2023-01-05T15:24:27.701Z,50.87
2023-01-05T15:27:22.486Z,55.37
2023-01-05T15:30:34.829Z,41.80
2023-01-05T15:33:18.487Z,31.27
2023-01-05T15:35:54.314Z,30.27
2023-01-05T15:38:26.340Z,43.43
2023-01-05T15:41:10.769Z,50.87
2023-01-05T15:43:41.605Z,68.43
2023-01-05T15:46:12.865Z,71.80
2023-01-05T15:48:46.649Z,52.33
2023-01-05T15:51:25.463Z,43.07
2023-01-05T15:54:05.604Z,33.73
2023-01-05T15:56:41.186Z,31.67
2023-01-05T15:59:33.003Z,32.03
2023-01-05T16:02:00.854Z,23.37
2023-01-05T16:04:28.495Z,24.97
2023-01-05T16:07:04.024Z,23.10
2023-01-05T16:09:36.074Z,30.23
2023-01-05T16:12:23.264Z,28.60
2023-01-05T16:15:01.777Z,27.03
2023-01-05T16:17:34.790Z,31.53
2023-01-05T16:20:15.546Z,28.60
2023-01-05T16:23:04.502Z,26.47
2023-01-05T16:25:50.981Z,25.67
2023-01-05T16:28:23.016Z,35.40
2023-01-05T16:30:53.983Z,31.17
2023-01-05T16:33:36.410Z,34.60
2023-01-05T16:36:21.123Z,33.27
2023-01-05T16:38:49.384Z,32.23
2023-01-05T16:41:28.065Z,28.60
2023-01-05T16:44:01.401Z,26.70
2023-01-05T16:46:37.313Z,32.23
2023-01-05T16:49:28.412Z,41.23
2023-01-05T16:52:02.761Z,41.83
2023-01-05T16:54:45.033Z,33.13
2023-01-05T16:58:03.466Z,45.63
2023-01-05T17:00:36.424Z,42.93
2023-01-05T17:03:32.289Z,48.40
2023-01-05T17:06:01.824Z,55.63
2023-01-05T17:08:36.349Z,92.23
2023-01-05T17:11:08.078Z,115.83
2023-01-05T17:13:49.231Z,83.60
2023-01-05T17:16:18.692Z,72.67
2023-01-05T17:18:47.589Z,71.33
2023-01-05T17:24:14.600Z,68.57
2023-01-05T17:26:46.637Z,59.97
2023-01-05T17:29:28.802Z,60.10
2023-01-05T17:31:57.340Z,64.43
2023-01-05T17:34:25.662Z,54.50
2023-01-05T17:36:57.774Z,130.53
2023-01-05T17:39:29.120Z,120.53
2023-01-05T17:42:18.427Z,96.80
2023-01-05T17:44:52.177Z,84.87
2023-01-05T17:47:20.902Z,76.43
2023-01-05T17:49:48.567Z,80.50
2023-01-05T17:52:16.095Z,86.30
2023-01-05T17:54:44.646Z,93.30
2023-01-05T17:57:19.092Z,87.97
2023-01-05T17:59:47.303Z,92.93
2023-01-05T18:02:16.466Z,90.93
2023-01-05T18:04:44.009Z,82.33
2023-01-05T18:07:12.230Z,54.93
2023-01-05T18:09:40.359Z,228.37
2023-01-05T18:12:11.828Z,118.40
2023-01-05T18:14:40.003Z,200.43
2023-01-05T18:17:08.691Z,181.37
2023-01-05T18:19:37.555Z,127.27
2023-01-05T18:22:07.235Z,98.63
2023-01-05T18:24:35.613Z,81.73
2023-01-05T18:27:07.038Z,110.30
2023-01-05T18:29:37.249Z,108.10
2023-01-05T18:32:06.935Z,120.33
2023-01-05T18:34:34.811Z,120.57
2023-01-05T18:37:06.338Z,121.87
2023-01-05T18:39:39.195Z,109.43
2023-01-05T18:42:07.214Z,135.10
2023-01-05T18:44:35.632Z,78.73
2023-01-05T18:47:03.193Z,81.80
2023-01-05T18:49:31.910Z,91.77
2023-01-05T18:52:00.065Z,64.97
2023-01-05T18:54:28.249Z,51.23
2023-01-05T18:56:56.982Z,71.07
2023-01-05T18:59:25.128Z,89.07
2023-01-05T19:01:52.789Z,95.93
2023-01-05T19:04:20.922Z,56.83
2023-01-05T19:06:48.506Z,56.40
2023-01-05T19:09:16.197Z,56.40
2023-01-05T19:11:49.219Z,65.50
2023-01-05T19:14:25.142Z,58.13
2023-01-05T19:16:54.690Z,59.43
2023-01-05T19:19:23.097Z,69.37
2023-01-05T19:22:11.385Z,66.63
2023-01-05T19:24:43.513Z,71.17
2023-01-05T19:27:11.187Z,99.93
2023-01-05T19:29:42.205Z,105.77
2023-01-05T19:32:12.608Z,116.40
2023-01-05T19:34:44.588Z,113.33
2023-01-05T19:37:16.228Z,96.70
2023-01-05T19:39:49.231Z,98.83
2023-01-05T19:42:39.430Z,129.83
2023-01-05T19:45:22.736Z,88.43
2023-01-05T19:47:50.365Z,101.07
2023-01-05T19:50:19.107Z,150.07
2023-01-05T19:52:46.643Z,102.83
2023-01-05T19:55:19.503Z,91.30
2023-01-05T19:57:53.453Z,80.63
2023-01-05T20:00:21.529Z,60.90
2023-01-05T20:02:49.107Z,41.67
2023-01-05T20:05:17.471Z,41.10
2023-01-05T20:07:50.020Z,39.27
2023-01-05T20:10:23.635Z,36.77
2023-01-05T20:12:53.976Z,35.60
2023-01-05T20:15:25.573Z,35.30
2023-01-05T20:17:53.631Z,32.00
2023-01-05T20:20:23.949Z,28.60
2023-01-05T20:22:54.498Z,32.60
2023-01-05T20:25:26.071Z,28.83
2023-01-05T20:27:58.754Z,29.40
2023-01-05T20:30:29.392Z,31.63
2023-01-05T20:32:58.369Z,33.30
2023-01-05T20:35:29.417Z,31.73
2023-01-05T20:38:01.418Z,27.37
2023-01-05T20:40:31.117Z,26.40
2023-01-05T20:43:00.457Z,21.37
2023-01-05T20:45:30.786Z,19.67
2023-01-05T20:48:00.078Z,19.87
2023-01-05T20:50:32.135Z,17.47
2023-01-05T20:53:01.063Z,16.10
2023-01-05T20:55:28.633Z,17.40
2023-01-05T20:57:58.575Z,20.23
2023-01-05T21:00:26.423Z,18.83
2023-01-05T21:02:56.591Z,19.67
2023-01-05T21:05:28.985Z,22.13
2023-01-05T21:07:56.641Z,25.70
2023-01-05T21:10:25.040Z,23.80
2023-01-05T21:12:54.947Z,22.60
2023-01-05T21:15:56.174Z,20.23
2023-01-05T21:18:25.206Z,20.97
2023-01-05T21:20:55.877Z,22.20
2023-01-05T21:23:48.468Z,22.97
2023-01-05T21:26:19.503Z,18.87
2023-01-05T21:28:56.943Z,20.03
2023-01-05T21:31:32.158Z,19.37
2023-01-05T21:34:01.940Z,19.80
2023-01-05T21:36:35.028Z,17.17
2023-01-05T21:39:09.289Z,17.93
2023-01-05T21:41:57.600Z,17.60
2023-01-05T21:44:26.356Z,20.57
2023-01-05T21:46:54.285Z,21.67
2023-01-05T21:49:24.259Z,20.03
2023-01-05T21:52:10.307Z,19.87
2023-01-05T21:54:57.906Z,19.53
2023-01-05T21:57:27.083Z,19.43
2023-01-05T21:59:55.832Z,18.90
2023-01-05T22:02:23.315Z,18.50
2023-01-05T22:04:50.937Z,19.93
2023-01-05T22:07:18.381Z,20.80
2023-01-05T22:09:46.126Z,20.03
2023-01-05T22:12:13.591Z,18.07
2023-01-05T22:14:41.177Z,17.83
2023-01-05T22:17:10.248Z,18.37
2023-01-05T22:19:38.433Z,18.07
2023-01-05T22:22:05.962Z,17.13
2023-01-05T22:24:33.648Z,16.77
2023-01-05T22:27:01.178Z,17.30
2023-01-05T22:29:28.747Z,15.07
2023-01-05T22:32:00.540Z,14.73
2023-01-05T22:34:29.636Z,14.20
2023-01-05T22:36:57.278Z,15.80
2023-01-05T22:39:24.921Z,13.73
2023-01-05T22:41:52.457Z,15.10
2023-01-05T22:44:20.080Z,14.80
2023-01-05T22:46:47.543Z,15.03
2023-01-05T22:49:16.639Z,15.17
2023-01-05T22:51:46.246Z,14.90
2023-01-05T22:54:14.198Z,14.50
2023-01-05T22:56:41.701Z,13.63
2023-01-05T22:59:09.286Z,13.47
2023-01-05T23:01:43.245Z,13.67
2023-01-05T23:04:15.033Z,14.23
2023-01-05T23:06:43.692Z,16.97
2023-01-05T23:09:15.209Z,16.50
2023-01-05T23:11:46.154Z,15.97
2023-01-05T23:14:14.988Z,17.47
2023-01-05T23:16:42.589Z,15.53
2023-01-05T23:19:10.336Z,15.03
2023-01-05T23:21:37.915Z,16.53
2023-01-05T23:24:06.098Z,17.20
2023-01-05T23:26:33.680Z,16.97
2023-01-05T23:29:01.270Z,14.30
2023-01-05T23:31:29.115Z,14.00
2023-01-05T23:33:58.085Z,16.03
2023-01-05T23:36:25.834Z,15.63
2023-01-05T23:38:53.461Z,14.93
2023-01-05T23:41:20.968Z,14.83
2023-01-05T23:43:48.568Z,12.73
2023-01-05T23:46:23.702Z,13.87
2023-01-05T23:48:52.611Z,18.33
2023-01-05T23:51:21.290Z,18.73
2023-01-05T23:53:52.211Z,16.73
2023-01-05T23:56:29.683Z,17.27
2023-01-05T23:59:06.836Z,15.40
